createdAt,value
2022-10-23T00:08:50.331Z,9.5
2022-10-23T00:18:50.803Z,9.4
2022-10-23T00:28:51.572Z,9.3
2022-10-23T00:38:52.254Z,9.2
2022-10-23T00:48:52.451Z,9.1
2022-10-23T00:58:52.673Z,9
2022-10-23T01:08:52.812Z,8.9
2022-10-23T01:18:53.527Z,8.9
2022-10-23T01:28:54.362Z,8.8
2022-10-23T01:38:55.219Z,8.7
2022-10-23T01:48:56.037Z,8.7
2022-10-23T01:58:56.596Z,8.6
2022-10-23T02:08:57.112Z,8.5
2022-10-23T02:18:58.174Z,8.5
2022-10-23T02:28:59.171Z,8.6
2022-10-23T02:38:59.689Z,8.5
2022-10-23T02:49:00.635Z,8.5
2022-10-23T02:59:01.324Z,8.5
2022-10-23T03:09:02.381Z,8.6
2022-10-23T03:19:02.501Z,8.6
2022-10-23T03:29:02.633Z,8.6
2022-10-23T03:39:03.412Z,8.6
2022-10-23T03:49:04.307Z,8.6
2022-10-23T03:59:04.564Z,8.6
2022-10-23T04:09:05.194Z,8.6
2022-10-23T04:19:06.059Z,8.5
2022-10-23T04:29:07.139Z,8.6
2022-10-23T04:39:07.771Z,8.6
2022-10-23T04:49:07.943Z,8.6
2022-10-23T04:59:08.351Z,8.6
2022-10-23T05:09:08.559Z,8.7
2022-10-23T05:19:08.907Z,8.9
2022-10-23T05:29:09.948Z,8.8
2022-10-23T05:39:10.952Z,8.8
2022-10-23T05:49:11.743Z,9
2022-10-23T05:59:12.783Z,9
2022-10-23T06:09:13.116Z,9.5
2022-10-23T06:19:13.532Z,9.6
2022-10-23T06:29:14.503Z,9.7
2022-10-23T06:39:15.092Z,9.9
2022-10-23T06:49:15.897Z,10
2022-10-23T06:59:16.186Z,10.2
2022-10-23T07:09:16.705Z,10.2
2022-10-23T07:19:17.446Z,10.5
2022-10-23T07:39:18.295Z,10.9
2022-10-23T07:49:18.660Z,11
2022-10-23T07:59:19.213Z,11.1
2022-10-23T08:09:19.463Z,11.3
2022-10-23T08:19:20.287Z,11.4
2022-10-23T08:29:20.642Z,11.6
2022-10-23T08:49:22.262Z,12
2022-10-23T08:59:22.773Z,12.5
2022-10-23T09:29:24.084Z,13.4
2022-10-23T09:39:25.035Z,13.8
2022-10-23T09:39:46.953Z,13.8
2022-10-23T09:49:31.145Z,14
2022-10-23T09:59:31.771Z,14.3
2022-10-23T10:09:31.980Z,14.6
2022-10-23T10:19:32.205Z,15
2022-10-23T10:29:32.261Z,15.2
2022-10-23T10:39:33.193Z,15.4
2022-10-23T10:59:33.797Z,15.8
2022-10-23T11:19:35.238Z,16.2
2022-10-23T11:29:35.656Z,16.3
2022-10-23T11:49:36.375Z,16.5
2022-10-23T11:59:37.343Z,16.6
2022-10-23T12:39:38.751Z,17.9
2022-10-23T12:49:39.227Z,18.5
2022-10-23T12:59:40.218Z,18.6
2022-10-23T13:39:42.329Z,19.1
2022-10-23T13:49:43.023Z,19.2
2022-10-23T13:59:44.060Z,19.2
2022-10-23T14:09:45.138Z,19.3
2022-10-23T14:39:49.869Z,19.4
2022-10-23T15:09:48.416Z,19.3
2022-10-23T15:19:49.239Z,19.2
2022-10-23T15:29:50.182Z,18.8
2022-10-23T15:39:51.099Z,18.4
2022-10-23T16:09:53.117Z,18.1
2022-10-23T16:29:54.904Z,17.6
2022-10-23T17:29:59.373Z,16.7
2022-10-23T18:10:01.329Z,16.4
2022-10-23T18:40:03.114Z,16.3
2022-10-23T18:50:03.382Z,16.2
2022-10-23T19:00:04.232Z,16.2
2022-10-23T19:10:04.543Z,16.1
2022-10-23T19:20:04.960Z,16
2022-10-23T19:30:05.737Z,15.8
2022-10-23T19:40:06.762Z,15.7
2022-10-23T19:50:06.985Z,15.6
2022-10-23T20:00:07.401Z,15.4
2022-10-23T20:10:07.850Z,15
2022-10-23T20:20:08.192Z,15.4
2022-10-23T20:30:09.123Z,15.6
2022-10-23T20:40:10.026Z,15.8
2022-10-23T21:00:11.446Z,15.8
2022-10-23T21:20:12.787Z,16
2022-10-23T21:30:13.251Z,16.1
2022-10-23T21:40:13.611Z,16.1
2022-10-23T21:50:13.884Z,15.9
2022-10-23T22:00:14.347Z,15.8
2022-10-23T22:10:15.012Z,15.5
2022-10-23T22:20:15.301Z,15.2
2022-10-23T22:30:15.716Z,14.9
2022-10-23T22:40:16.272Z,14.4
2022-10-23T22:50:17.246Z,14
2022-10-23T23:00:18.057Z,14.2
2022-10-23T23:10:18.150Z,13.9
2022-10-23T23:20:18.417Z,14.1
2022-10-23T23:30:18.585Z,14.3
2022-10-23T23:40:18.937Z,14.6
2022-10-23T23:50:19.937Z,14.9
